Time;durP1;ratioP1;P1;durP2;ratioP2;P2;SDS_P1;SDS_P2;PMS_P1;PMS_P2;Temp;Humidity;BMP_temperature;BMP_pressure;BME280_temperature;BME280_humidity;BME280_pressure;Samples;Min_cycle;Max_cycle;Signal;HPM_P1;HPM_P2
2022/11/03 00:01:40;;;;;;;2.72;0.90;;;13.70;67.70;;;;;;5089954;28;20371;-67
2022/11/03 00:04:08;;;;;;;4.07;1.13;;;13.70;67.70;;;;;;5089472;28;20047;-68
2022/11/03 00:06:35;;;;;;;4.60;1.45;;;13.70;67.90;;;;;;5087108;28;20039;-68
2022/11/03 00:09:03;;;;;;;2.38;0.80;;;13.60;68.00;;;;;;5095986;28;20028;-68
2022/11/03 00:11:32;;;;;;;2.58;1.13;;;13.70;68.10;;;;;;5099827;28;20434;-72
2022/11/03 00:13:58;;;;;;;5.78;1.05;;;13.60;68.00;;;;;;5089454;28;20040;-72
2022/11/03 00:16:24;;;;;;;2.05;0.90;;;13.60;68.10;;;;;;5089382;28;20028;-72
2022/11/03 00:18:50;;;;;;;1.50;1.08;;;13.70;68.10;;;;;;5085375;28;20209;-73
2022/11/03 00:21:16;;;;;;;1.40;0.80;;;13.70;68.90;;;;;;5103811;28;20525;-72
2022/11/03 00:23:43;;;;;;;1.55;1.23;;;13.60;68.30;;;;;;5089702;28;20056;-72
2022/11/03 00:26:20;;;;;;;1.48;0.70;;;13.60;68.40;;;;;;5083697;28;20439;-72
2022/11/03 00:28:47;;;;;;;2.58;0.63;;;13.60;68.40;;;;;;5087887;28;20031;-72
2022/11/03 00:31:25;;;;;;;4.22;0.98;;;13.60;68.40;;;;;;5085429;28;20365;-72
2022/11/03 00:33:51;;;;;;;5.38;1.30;;;13.60;68.40;;;;;;5084886;28;20078;-68
2022/11/03 00:36:20;;;;;;;4.47;1.48;;;13.60;68.40;;;;;;5081342;28;20024;-67
2022/11/03 00:38:46;;;;;;;1.23;0.60;;;13.60;68.50;;;;;;5089472;28;20016;-73
2022/11/03 00:41:13;;;;;;;2.30;1.35;;;13.60;68.70;;;;;;5087114;28;20063;-70
2022/11/03 00:43:40;;;;;;;2.53;1.00;;;13.60;68.90;;;;;;5098290;28;20031;-67
2022/11/03 00:46:07;;;;;;;2.22;0.95;;;13.60;68.90;;;;;;5095437;28;20441;-66
2022/11/03 00:48:34;;;;;;;1.65;1.00;;;13.60;68.90;;;;;;5089266;28;20095;-67
2022/11/03 00:51:09;;;;;;;1.08;0.90;;;13.60;69.00;;;;;;5093306;28;20032;-67
2022/11/03 00:53:38;;;;;;;2.22;1.23;;;13.60;69.00;;;;;;5088938;28;20084;-71
2022/11/03 00:56:04;;;;;;;3.92;1.05;;;13.50;69.30;;;;;;5096668;28;20021;-71
2022/11/03 00:58:30;;;;;;;2.38;1.15;;;13.50;69.40;;;;;;5097712;28;20036;-72
2022/11/03 01:00:59;;;;;;;6.22;1.55;;;13.50;69.50;;;;;;5095265;28;20039;-72
2022/11/03 01:03:25;;;;;;;3.45;1.08;;;13.50;69.60;;;;;;5098288;28;20066;-72
2022/11/03 01:08:35;;;;;;;2.55;1.17;;;13.50;69.70;;;;;;5095808;28;20058;-68
2022/11/03 01:13:54;;;;;;;3.80;1.55;;;13.40;70.00;;;;;;5082823;28;20093;-68
2022/11/03 01:16:20;;;;;;;5.68;1.45;;;13.40;70.70;;;;;;5092359;28;20095;-68
2022/11/03 01:18:46;;;;;;;4.90;1.38;;;13.40;70.10;;;;;;5094552;28;20034;-68
2022/11/03 01:21:12;;;;;;;4.90;1.48;;;13.40;70.20;;;;;;5091557;28;20149;-68
2022/11/03 01:23:38;;;;;;;2.03;1.30;;;13.40;70.30;;;;;;5092453;28;20012;-68
2022/11/03 01:26:05;;;;;;;1.65;0.93;;;13.40;70.30;;;;;;5070665;28;20550;-68
2022/11/03 01:28:33;;;;;;;3.03;1.17;;;13.40;70.50;;;;;;5095676;28;20028;-68
2022/11/03 01:31:04;;;;;;;2.72;1.17;;;13.40;70.40;;;;;;5089652;28;20451;-68
2022/11/03 01:33:29;;;;;;;1.95;1.25;;;13.30;70.50;;;;;;5091236;28;20479;-68
2022/11/03 01:35:55;;;;;;;4.13;1.42;;;13.40;70.50;;;;;;5089510;28;20027;-67
2022/11/03 01:38:21;;;;;;;1.23;0.98;;;13.40;70.50;;;;;;5084417;28;20499;-67
2022/11/03 01:40:46;;;;;;;1.48;0.85;;;13.40;70.50;;;;;;5092856;28;20024;-67
2022/11/03 01:43:22;;;;;;;2.15;1.30;;;13.30;70.60;;;;;;5089197;28;20070;-68
2022/11/03 01:45:55;;;;;;;5.20;1.20;;;13.40;70.60;;;;;;5090939;28;20048;-67
2022/11/03 01:48:22;;;;;;;2.65;1.33;;;13.30;70.70;;;;;;5092066;28;20063;-69
2022/11/03 01:50:48;;;;;;;2.83;1.17;;;13.30;70.90;;;;;;5095445;28;20787;-67
2022/11/03 01:53:16;;;;;;;4.45;1.50;;;13.20;71.20;;;;;;5104167;28;20035;-68
2022/11/03 01:55:43;;;;;;;2.33;0.70;;;13.20;71.30;;;;;;5103637;28;20501;-67
2022/11/03 01:58:23;;;;;;;1.33;1.00;;;13.20;71.50;;;;;;5110193;28;20035;-67
2022/11/03 02:00:52;;;;;;;2.28;1.30;;;13.10;71.50;;;;;;5078965;28;20573;-67
2022/11/03 02:03:20;;;;;;;2.55;1.33;;;13.10;71.50;;;;;;5097844;28;20080;-67
2022/11/03 02:05:48;;;;;;;1.70;1.05;;;13.10;71.70;;;;;;5090143;28;20047;-67
2022/11/03 02:08:13;;;;;;;2.03;1.20;;;13.10;71.80;;;;;;5089456;28;20024;-72
2022/11/03 02:10:39;;;;;;;2.75;0.80;;;13.10;71.80;;;;;;5091183;28;20040;-72
2022/11/03 02:13:25;;;;;;;2.58;0.85;;;13.10;71.70;;;;;;5092821;28;20051;-73
2022/11/03 02:15:59;;;;;;;2.38;0.98;;;13.10;71.60;;;;;;5091632;28;20410;-72
2022/11/03 02:18:30;;;;;;;3.17;1.38;;;13.10;71.70;;;;;;5080421;28;20024;-72
2022/11/03 02:21:16;;;;;;;3.42;1.17;;;13.10;71.80;;;;;;5085880;28;20282;-71
2022/11/03 02:24:04;;;;;;;6.15;1.80;;;13.10;71.70;;;;;;5088560;28;20020;-68
2022/11/03 02:26:30;;;;;;;1.00;0.70;;;13.10;71.90;;;;;;5092463;28;20107;-67
2022/11/03 02:28:56;;;;;;;8.15;1.48;;;13.00;71.90;;;;;;5086139;28;20572;-68
2022/11/03 02:31:36;;;;;;;4.45;1.40;;;13.00;71.90;;;;;;5089261;28;20032;-67
2022/11/03 02:34:32;;;;;;;3.08;0.75;;;13.10;72.00;;;;;;5090268;28;20028;-67
2022/11/03 02:37:16;;;;;;;1.75;1.08;;;13.10;72.00;;;;;;5085643;28;20709;-68
2022/11/03 02:40:09;;;;;;;4.10;1.67;;;13.00;72.10;;;;;;5087022;28;20589;-72
2022/11/03 02:42:35;;;;;;;4.90;1.27;;;13.00;72.10;;;;;;5089773;28;20016;-72
2022/11/03 02:45:05;;;;;;;2.85;1.35;;;13.00;72.40;;;;;;5091509;28;20111;-67
2022/11/03 02:47:33;;;;;;;1.92;1.23;;;12.90;72.40;;;;;;5079273;28;20021;-67
2022/11/03 02:50:07;;;;;;;4.43;1.52;;;13.00;72.50;;;;;;5093941;28;20024;-68
2022/11/03 02:52:36;;;;;;;4.10;1.50;;;13.00;72.50;;;;;;5095845;28;20060;-66
2022/11/03 02:55:11;;;;;;;6.75;0.70;;;13.00;72.70;;;;;;5098926;28;20026;-68
2022/11/03 02:57:44;;;;;;;1.23;0.93;;;13.00;72.70;;;;;;5105809;28;20490;-67
2022/11/03 03:00:11;;;;;;;1.90;1.10;;;12.90;72.80;;;;;;5104380;28;20066;-67
2022/11/03 03:02:46;;;;;;;3.03;1.25;;;12.90;72.80;;;;;;5088584;28;20516;-68
2022/11/03 03:05:14;;;;;;;5.10;1.38;;;13.00;72.80;;;;;;5102973;27;20035;-68
2022/11/03 03:07:47;;;;;;;5.63;1.80;;;13.00;72.70;;;;;;5096046;28;20040;-68
2022/11/03 03:10:13;;;;;;;2.70;1.42;;;13.00;72.70;;;;;;5082064;28;20023;-72
2022/11/03 03:12:45;;;;;;;2.58;0.95;;;13.00;72.70;;;;;;5087609;28;20553;-73
2022/11/03 03:15:11;;;;;;;1.73;1.05;;;13.00;72.70;;;;;;5097144;28;20027;-72
2022/11/03 03:17:40;;;;;;;3.38;1.10;;;13.00;72.70;;;;;;5098462;28;20067;-73
2022/11/03 03:20:27;;;;;;;2.60;1.08;;;13.00;72.80;;;;;;5098910;28;20047;-73
2022/11/03 03:23:17;;;;;;;7.05;1.30;;;13.00;72.80;;;;;;5096402;28;20016;-71
2022/11/03 03:26:04;;;;;;;1.45;1.05;;;13.00;72.90;;;;;;5086119;28;20149;-72
2022/11/03 03:28:42;;;;;;;2.47;1.05;;;13.00;73.00;;;;;;5091076;28;20028;-71
2022/11/03 03:31:12;;;;;;;2.90;1.23;;;13.00;73.00;;;;;;5093288;28;20024;-72
2022/11/03 03:33:38;;;;;;;3.13;0.98;;;13.00;73.10;;;;;;5106561;28;20016;-71
2022/11/03 03:36:10;;;;;;;2.70;1.13;;;13.00;73.10;;;;;;5086473;28;20108;-70
2022/11/03 03:38:40;;;;;;;0.90;0.57;;;13.00;73.00;;;;;;5092873;28;20032;-67
2022/11/03 03:41:09;;;;;;;1.15;0.65;;;13.00;73.00;;;;;;5083125;28;20376;-74
2022/11/03 03:43:35;;;;;;;2.50;0.90;;;13.00;73.60;;;;;;5086463;28;20020;-71
2022/11/03 03:46:08;;;;;;;2.15;0.57;;;13.00;73.00;;;;;;5088026;28;20537;-71
2022/11/03 03:48:35;;;;;;;4.22;1.08;;;13.00;73.00;;;;;;5087597;28;20020;-71
2022/11/03 03:51:02;;;;;;;1.65;0.82;;;13.00;73.10;;;;;;5092483;28;20160;-70
2022/11/03 03:53:29;;;;;;;1.33;0.63;;;13.00;73.00;;;;;;5092272;28;20028;-71
2022/11/03 03:55:56;;;;;;;1.92;0.88;;;13.00;73.10;;;;;;5088651;28;20055;-67
2022/11/03 03:58:22;;;;;;;1.50;0.98;;;13.00;73.00;;;;;;5098096;28;20024;-67
2022/11/03 04:00:48;;;;;;;3.10;0.85;;;13.00;73.10;;;;;;5081436;28;20576;-66
2022/11/03 04:03:18;;;;;;;2.25;1.25;;;13.00;73.10;;;;;;5098944;28;20096;-67
2022/11/03 04:05:45;;;;;;;3.88;0.93;;;13.00;73.00;;;;;;5091241;28;20127;-67
2022/11/03 04:08:12;;;;;;;1.20;0.88;;;13.00;73.00;;;;;;5102207;28;20445;-66
2022/11/03 04:10:38;;;;;;;1.30;0.93;;;13.00;73.60;;;;;;5098702;28;20024;-67
2022/11/03 04:23:49;;;;;;;3.05;1.50;;;13.00;73.00;;;;;;5089405;28;20052;-71
2022/11/03 04:26:17;;;;;;;2.42;0.73;;;13.00;72.90;;;;;;5091985;28;20475;-67
2022/11/03 04:28:44;;;;;;;1.02;0.57;;;13.00;72.80;;;;;;5095206;28;20103;-68
2022/11/03 04:31:15;;;;;;;2.30;1.17;;;13.10;72.90;;;;;;5093640;28;20028;-68
2022/11/03 04:33:42;;;;;;;1.20;0.95;;;13.10;73.00;;;;;;5090309;28;20019;-70
2022/11/03 04:36:24;;;;;;;6.03;0.98;;;13.10;73.00;;;;;;5091606;28;20023;-71
2022/11/03 04:38:50;;;;;;;1.20;0.73;;;13.20;72.90;;;;;;5090912;28;20024;-72
2022/11/03 04:41:23;;;;;;;2.97;1.55;;;13.10;73.00;;;;;;5100302;28;20081;-72
2022/11/03 04:43:50;;;;;;;1.08;0.60;;;13.10;72.90;;;;;;5104092;28;20292;-72
2022/11/03 04:46:22;;;;;;;8.68;0.90;;;13.10;72.90;;;;;;5089708;28;20028;-72
2022/11/03 04:48:49;;;;;;;3.47;1.30;;;13.10;72.90;;;;;;5092558;28;20071;-72
2022/11/03 04:51:21;;;;;;;0.60;0.60;;;13.10;72.90;;;;;;5097432;28;20019;-67
2022/11/03 04:53:53;;;;;;;1.55;0.60;;;13.10;72.90;;;;;;5099462;28;20020;-67
2022/11/03 04:56:22;;;;;;;2.58;0.95;;;13.10;73.40;;;;;;5094825;28;20371;-67
2022/11/03 04:58:48;;;;;;;2.13;0.90;;;13.10;72.90;;;;;;5108410;28;20020;-68
2022/11/03 05:01:18;;;;;;;2.03;1.15;;;13.10;73.00;;;;;;5096076;28;20372;-72
2022/11/03 05:03:46;;;;;;;3.85;1.35;;;13.10;73.00;;;;;;5101368;28;20024;-67
2022/11/03 05:06:21;;;;;;;0.63;0.63;;;13.10;73.00;;;;;;5098435;28;20048;-72
2022/11/03 05:08:57;;;;;;;4.53;1.33;;;13.10;73.00;;;;;;5089693;28;20061;-71
2022/11/03 05:11:35;;;;;;;2.50;1.25;;;13.10;73.00;;;;;;5095148;28;20028;-71
2022/11/03 05:14:05;;;;;;;1.85;0.90;;;13.10;73.00;;;;;;5091537;28;20016;-72
2022/11/03 05:16:31;;;;;;;2.25;0.98;;;13.10;73.20;;;;;;5092610;28;20024;-72
2022/11/03 05:18:57;;;;;;;0.70;0.55;;;13.10;73.40;;;;;;5092304;28;20076;-72
2022/11/03 05:21:27;;;;;;;2.78;0.88;;;13.10;73.40;;;;;;5092672;28;20096;-72
2022/11/03 05:24:01;;;;;;;1.10;0.80;;;13.10;73.30;;;;;;5085915;28;20032;-72
2022/11/03 05:26:33;;;;;;;10.80;1.17;;;13.10;73.30;;;;;;5091963;28;20425;-72
2022/11/03 05:29:18;;;;;;;1.13;0.65;;;13.10;73.30;;;;;;5090988;28;20048;-71
2022/11/03 05:31:46;;;;;;;1.25;1.08;;;13.10;73.40;;;;;;5093736;28;20020;-72
2022/11/03 05:34:15;;;;;;;1.42;1.00;;;13.10;73.40;;;;;;5091944;28;20493;-72
2022/11/03 05:36:41;;;;;;;3.97;0.90;;;13.10;73.50;;;;;;5091886;28;20683;-71
2022/11/03 05:39:25;;;;;;;3.42;1.17;;;13.10;73.50;;;;;;5091217;28;20077;-72
2022/11/03 05:41:51;;;;;;;2.00;1.20;;;13.10;73.40;;;;;;5087565;28;20026;-71
2022/11/03 05:44:36;;;;;;;2.53;0.77;;;13.10;73.60;;;;;;5091152;28;20130;-71
2022/11/03 05:47:23;;;;;;;1.05;0.70;;;13.10;73.60;;;;;;5097920;28;20082;-71
2022/11/03 05:49:52;;;;;;;1.75;0.75;;;13.10;73.50;;;;;;5082995;28;20079;-71
2022/11/03 05:52:24;;;;;;;1.08;0.98;;;13.10;73.60;;;;;;5087675;28;20027;-72
2022/11/03 05:54:52;;;;;;;4.22;1.15;;;13.10;73.50;;;;;;5084873;28;20036;-72
2022/11/03 05:57:19;;;;;;;2.58;1.27;;;13.10;73.60;;;;;;5085711;28;20039;-71
2022/11/03 05:59:50;;;;;;;7.13;1.35;;;13.10;73.60;;;;;;5088573;28;20020;-71
2022/11/03 06:02:38;;;;;;;2.50;1.08;;;13.10;73.70;;;;;;5082061;28;20667;-71
2022/11/03 06:05:21;;;;;;;6.43;1.58;;;13.20;73.80;;;;;;5078579;28;20036;-71
2022/11/03 06:07:53;;;;;;;4.65;1.27;;;13.10;74.00;;;;;;5089597;28;20487;-72
2022/11/03 06:10:38;;;;;;;0.95;0.77;;;13.10;74.10;;;;;;5093054;28;20119;-67
2022/11/03 06:13:18;;;;;;;1.27;0.75;;;13.10;73.90;;;;;;5088097;28;20158;-67
2022/11/03 06:15:46;;;;;;;1.92;0.80;;;13.10;73.90;;;;;;5088636;28;20020;-72
2022/11/03 06:18:28;;;;;;;1.77;0.77;;;13.10;74.00;;;;;;5101706;28;20071;-71
2022/11/03 06:20:57;;;;;;;0.90;0.70;;;13.10;74.70;;;;;;5085845;28;20020;-71
2022/11/03 06:23:23;;;;;;;1.02;0.80;;;13.10;74.10;;;;;;5087980;28;20019;-72
2022/11/03 06:25:52;;;;;;;10.90;1.10;;;13.10;74.00;;;;;;5088347;28;20021;-72
2022/11/03 06:28:39;;;;;;;2.97;0.95;;;13.10;74.10;;;;;;5087253;28;20028;-71
2022/11/03 06:31:31;;;;;;;1.42;0.80;;;13.20;74.00;;;;;;5086426;28;20048;-71
2022/11/03 06:33:58;;;;;;;5.72;0.95;;;13.20;74.00;;;;;;5090472;28;20495;-71
2022/11/03 06:36:26;;;;;;;2.78;1.17;;;13.20;74.10;;;;;;5088723;28;20032;-72
2022/11/03 06:39:00;;;;;;;2.20;0.50;;;13.10;74.00;;;;;;5091046;28;20047;-67
2022/11/03 06:41:28;;;;;;;6.28;1.75;;;13.20;74.10;;;;;;5091470;28;20433;-66
2022/11/03 06:43:55;;;;;;;2.35;1.33;;;13.20;74.00;;;;;;5089847;28;20050;-66
2022/11/03 06:46:25;;;;;;;3.92;0.73;;;13.20;74.00;;;;;;5088616;28;20483;-67
2022/11/03 06:48:57;;;;;;;0.65;0.65;;;13.20;74.20;;;;;;5084122;28;20616;-71
2022/11/03 06:51:29;;;;;;;2.33;1.17;;;13.20;74.20;;;;;;5092679;28;20031;-66
2022/11/03 06:53:58;;;;;;;4.40;1.38;;;13.20;74.20;;;;;;5096650;28;20016;-71
2022/11/03 06:56:27;;;;;;;3.70;1.05;;;13.20;74.40;;;;;;5079527;28;20038;-71
2022/11/03 06:58:55;;;;;;;1.90;1.15;;;13.30;74.50;;;;;;5085164;28;20016;-71
2022/11/03 07:01:24;;;;;;;2.15;1.02;;;13.30;74.50;;;;;;5085277;28;20126;-72
2022/11/03 07:03:55;;;;;;;1.38;0.77;;;13.30;74.50;;;;;;5084276;28;20024;-72
2022/11/03 07:06:29;;;;;;;2.63;1.13;;;13.30;74.50;;;;;;5084677;28;20047;-72
2022/11/03 07:09:08;;;;;;;5.22;1.60;;;13.30;74.50;;;;;;5087332;28;20046;-71
2022/11/03 07:11:41;;;;;;;1.27;0.80;;;13.40;74.60;;;;;;5086383;28;20042;-72
2022/11/03 07:14:13;;;;;;;6.07;1.58;;;13.40;74.60;;;;;;5086972;28;20127;-72
2022/11/03 07:16:48;;;;;;;3.57;0.77;;;13.40;74.70;;;;;;5088244;28;20021;-70
2022/11/03 07:19:26;;;;;;;3.50;1.25;;;13.40;74.60;;;;;;5089563;28;20052;-70
2022/11/03 07:22:03;;;;;;;1.35;0.55;;;13.40;74.60;;;;;;5085954;28;20511;-71
2022/11/03 07:24:30;;;;;;;0.77;0.77;;;13.40;74.60;;;;;;5081689;28;20020;-70
2022/11/03 07:27:19;;;;;;;9.90;0.98;;;13.40;74.60;;;;;;5086186;28;20432;-71
2022/11/03 07:29:46;;;;;;;0.98;0.75;;;13.50;74.60;;;;;;5085762;28;20038;-71
2022/11/03 07:32:17;;;;;;;2.33;1.05;;;13.50;74.70;;;;;;5088760;28;20032;-67
2022/11/03 07:34:44;;;;;;;3.17;1.00;;;13.50;74.80;;;;;;5087582;28;20044;-67
2022/11/03 07:37:25;;;;;;;3.40;0.60;;;13.50;74.70;;;;;;5078161;28;20028;-66
2022/11/03 07:39:51;;;;;;;26.63;1.23;;;13.50;74.60;;;;;;5084653;28;20121;-67
2022/11/03 07:42:23;;;;;;;1.25;0.75;;;13.50;74.60;;;;;;5086349;28;20032;-67
2022/11/03 07:44:49;;;;;;;4.47;1.73;;;13.60;74.50;;;;;;5088371;28;20020;-67
2022/11/03 07:47:25;;;;;;;1.58;0.60;;;13.60;74.60;;;;;;5090936;28;20111;-67
2022/11/03 07:49:52;;;;;;;3.17;1.52;;;13.70;74.40;;;;;;5087214;28;20024;-70
2022/11/03 07:52:23;;;;;;;1.67;0.70;;;13.70;74.30;;;;;;5087641;28;20113;-70
2022/11/03 07:54:53;;;;;;;0.80;0.60;;;13.80;74.30;;;;;;5094873;28;20042;-71
2022/11/03 07:57:26;;;;;;;1.83;0.98;;;13.80;74.30;;;;;;5092983;28;20059;-67
2022/11/03 08:00:00;;;;;;;1.85;1.00;;;13.80;74.30;;;;;;5094208;28;20096;-67
2022/11/03 08:02:42;;;;;;;1.95;1.00;;;13.80;74.20;;;;;;5087620;28;20028;-68
2022/11/03 08:05:08;;;;;;;1.52;1.13;;;13.90;74.30;;;;;;5090760;28;20038;-68
2022/11/03 08:07:33;;;;;;;1.50;0.98;;;13.80;74.40;;;;;;5091249;28;20032;-68
2022/11/03 08:09:59;;;;;;;1.55;1.20;;;13.80;74.30;;;;;;5090557;28;20088;-67
2022/11/03 08:12:25;;;;;;;1.42;0.82;;;13.90;74.30;;;;;;5089144;28;20526;-70
2022/11/03 08:14:50;;;;;;;2.03;0.73;;;13.90;74.20;;;;;;5092631;28;20039;-70
2022/11/03 08:17:16;;;;;;;1.02;0.93;;;13.90;74.10;;;;;;5099980;28;20052;-70
2022/11/03 08:19:41;;;;;;;1.77;0.70;;;13.90;74.30;;;;;;5091750;28;20039;-66
2022/11/03 08:22:07;;;;;;;2.17;1.08;;;13.90;74.30;;;;;;5088539;28;20031;-70
2022/11/03 08:24:33;;;;;;;2.35;1.00;;;14.00;74.50;;;;;;5088925;28;20032;-70
2022/11/03 08:26:59;;;;;;;4.03;0.60;;;14.00;74.50;;;;;;5088004;28;20035;-70
2022/11/03 08:29:26;;;;;;;3.33;1.33;;;14.00;74.60;;;;;;5086560;28;20062;-69
2022/11/03 08:31:52;;;;;;;6.30;1.17;;;14.00;74.50;;;;;;5078030;28;20483;-70
2022/11/03 08:34:18;;;;;;;3.50;1.33;;;14.10;74.50;;;;;;5083982;28;20032;-71
2022/11/03 08:36:44;;;;;;;1.60;1.23;;;14.10;74.40;;;;;;5082630;28;20059;-70
2022/11/03 08:39:10;;;;;;;3.35;1.70;;;14.10;74.50;;;;;;5086044;28;20024;-71
2022/11/03 08:41:36;;;;;;;2.15;1.13;;;14.10;74.40;;;;;;5085061;28;20390;-70
2022/11/03 08:44:01;;;;;;;3.75;0.90;;;14.10;74.40;;;;;;5082286;28;20021;-71
2022/11/03 08:46:27;;;;;;;1.38;0.85;;;14.10;74.50;;;;;;5070484;28;20024;-71
2022/11/03 08:48:53;;;;;;;3.35;1.27;;;14.10;74.60;;;;;;5082134;28;20107;-71
2022/11/03 08:51:19;;;;;;;3.15;1.63;;;14.10;74.50;;;;;;5087008;28;20028;-71
2022/11/03 08:53:49;;;;;;;3.60;1.33;;;14.10;74.50;;;;;;5077897;28;20036;-67
2022/11/03 08:56:14;;;;;;;1.13;0.95;;;14.10;74.40;;;;;;5089022;28;20077;-67
2022/11/03 08:58:40;;;;;;;3.95;1.48;;;14.20;74.40;;;;;;5087066;28;20055;-67
2022/11/03 09:01:06;;;;;;;4.13;1.10;;;14.20;74.20;;;;;;5066661;28;20025;-69
2022/11/03 09:03:32;;;;;;;1.17;0.77;;;14.30;74.10;;;;;;5078341;28;20475;-73
2022/11/03 09:05:58;;;;;;;2.97;1.20;;;14.30;74.00;;;;;;5086954;28;20090;-72
2022/11/03 09:08:23;;;;;;;2.20;0.90;;;14.40;73.90;;;;;;5080938;28;20025;-69
2022/11/03 09:10:49;;;;;;;0.98;0.75;;;14.40;73.80;;;;;;5085992;28;20031;-68
2022/11/03 09:13:15;;;;;;;1.70;0.80;;;14.50;73.70;;;;;;5079890;28;20032;-68
2022/11/03 09:15:40;;;;;;;3.08;1.15;;;14.50;73.60;;;;;;5083784;28;20115;-67
2022/11/03 09:18:06;;;;;;;0.77;0.77;;;14.60;73.50;;;;;;5082044;28;20036;-66
2022/11/03 09:20:32;;;;;;;5.75;1.02;;;14.60;73.40;;;;;;5087445;28;20032;-67
2022/11/03 09:22:57;;;;;;;0.88;0.88;;;14.70;73.30;;;;;;5086572;28;20024;-67
2022/11/03 09:25:23;;;;;;;4.55;1.58;;;14.70;73.20;;;;;;5090542;28;20439;-67
2022/11/03 09:27:49;;;;;;;1.20;1.10;;;14.70;73.10;;;;;;5084629;28;20063;-67
2022/11/03 09:30:16;;;;;;;2.63;0.95;;;14.80;73.00;;;;;;5090351;28;20027;-68
2022/11/03 09:32:42;;;;;;;1.90;1.00;;;14.80;73.00;;;;;;5093226;28;20119;-68
2022/11/03 09:35:11;;;;;;;2.33;1.23;;;14.80;72.90;;;;;;5089774;28;20119;-68
2022/11/03 09:37:36;;;;;;;1.85;0.60;;;14.90;72.90;;;;;;5084507;28;20043;-68
2022/11/03 09:40:03;;;;;;;5.43;0.85;;;14.90;72.70;;;;;;5089003;28;20481;-69
2022/11/03 09:42:33;;;;;;;2.08;1.17;;;15.00;72.50;;;;;;5089920;28;20038;-68
2022/11/03 09:44:59;;;;;;;1.17;0.55;;;15.10;72.40;;;;;;5090424;28;20120;-68
2022/11/03 09:47:46;;;;;;;2.35;0.95;;;15.10;72.10;;;;;;5090271;28;20471;-68
2022/11/03 09:50:18;;;;;;;3.83;0.57;;;15.20;72.00;;;;;;5086521;28;20082;-68
2022/11/03 09:52:44;;;;;;;4.05;1.35;;;15.30;71.80;;;;;;5091075;28;20107;-68
2022/11/03 09:55:31;;;;;;;1.77;0.90;;;15.40;71.60;;;;;;5100631;28;20464;-68
2022/11/03 09:57:59;;;;;;;2.38;1.00;;;15.50;71.10;;;;;;5087709;28;20109;-71
2022/11/03 10:00:26;;;;;;;3.15;0.60;;;15.60;71.00;;;;;;5072653;28;20039;-71
2022/11/03 10:02:53;;;;;;;3.60;1.02;;;15.60;70.80;;;;;;5089105;28;20013;-67
2022/11/03 10:05:25;;;;;;;2.78;0.93;;;15.60;70.80;;;;;;5091795;28;20051;-67
2022/11/03 10:07:55;;;;;;;0.88;0.73;;;15.60;70.70;;;;;;5085839;28;20031;-67
2022/11/03 10:10:21;;;;;;;5.05;0.88;;;15.60;70.60;;;;;;5089477;28;20147;-67
2022/11/03 10:12:51;;;;;;;1.17;0.90;;;15.60;70.50;;;;;;5087184;28;20094;-67
2022/11/03 10:15:19;;;;;;;4.13;1.05;;;15.60;70.40;;;;;;5088950;28;20042;-71
2022/11/03 10:17:46;;;;;;;1.08;0.85;;;15.60;70.40;;;;;;5082577;28;20102;-72
2022/11/03 10:20:13;;;;;;;4.80;1.17;;;15.50;70.30;;;;;;5089800;28;20472;-72
2022/11/03 10:22:41;;;;;;;4.85;1.27;;;15.50;70.30;;;;;;5078359;28;20038;-71
2022/11/03 10:25:42;;;;;;;1.27;0.70;;;15.50;70.30;;;;;;5089310;28;20028;-71
2022/11/03 10:28:10;;;;;;;1.15;0.80;;;15.50;70.20;;;;;;5081355;28;20028;-71
2022/11/03 10:30:48;;;;;;;2.38;0.90;;;15.50;70.40;;;;;;5089849;28;20024;-71
2022/11/03 10:33:33;;;;;;;5.38;0.73;;;15.50;70.20;;;;;;5089231;28;20475;-71
2022/11/03 10:36:14;;;;;;;2.47;1.00;;;15.50;70.20;;;;;;5087190;28;20063;-71
2022/11/03 10:38:40;;;;;;;1.67;0.75;;;15.50;70.00;;;;;;5084350;28;20027;-72
2022/11/03 10:41:11;;;;;;;1.20;0.77;;;15.50;70.00;;;;;;5088511;28;20036;-72
2022/11/03 10:43:42;;;;;;;1.67;1.13;;;15.50;70.00;;;;;;5100228;28;20442;-71
2022/11/03 10:46:18;;;;;;;0.60;0.60;;;15.50;70.10;;;;;;5084668;28;20064;-71
2022/11/03 10:48:59;;;;;;;1.55;1.23;;;15.50;69.90;;;;;;5088277;28;20036;-71
2022/11/03 10:51:25;;;;;;;1.13;0.55;;;15.50;69.90;;;;;;5091446;28;20043;-71
2022/11/03 10:53:51;;;;;;;2.22;0.88;;;15.50;69.80;;;;;;5090278;28;20391;-72
2022/11/03 10:56:16;;;;;;;3.72;0.82;;;15.60;69.70;;;;;;5088003;28;20031;-72
2022/11/03 10:58:42;;;;;;;1.02;0.73;;;15.50;69.60;;;;;;5089458;28;20115;-72
2022/11/03 11:01:09;;;;;;;2.03;1.00;;;15.50;69.40;;;;;;5090316;28;20056;-71
2022/11/03 11:03:40;;;;;;;1.58;0.60;;;15.50;69.20;;;;;;5089816;28;20210;-71
2022/11/03 11:06:20;;;;;;;5.97;0.77;;;15.50;69.20;;;;;;5087406;28;20105;-71
2022/11/03 11:08:47;;;;;;;1.20;0.77;;;15.60;69.30;;;;;;5090179;28;20036;-71
2022/11/03 11:11:18;;;;;;;3.17;0.52;;;15.50;69.10;;;;;;5087616;28;20055;-71
2022/11/03 11:13:43;;;;;;;1.50;1.10;;;15.50;69.00;;;;;;5087509;28;20482;-70
2022/11/03 11:16:49;;;;;;;2.58;1.08;;;15.60;69.00;;;;;;5088122;28;20066;-71
2022/11/03 11:19:15;;;;;;;3.22;0.73;;;15.60;68.80;;;;;;5090157;28;20020;-71
2022/11/03 11:21:41;;;;;;;0.68;0.50;;;15.60;68.70;;;;;;5082782;28;20089;-71
2022/11/03 11:24:10;;;;;;;1.33;0.70;;;15.70;68.60;;;;;;5085778;28;20028;-70
2022/11/03 11:26:37;;;;;;;1.63;0.70;;;15.80;68.60;;;;;;5086571;28;20470;-70
2022/11/03 11:29:09;;;;;;;1.48;0.88;;;16.00;68.10;;;;;;5089780;28;20051;-71
2022/11/03 11:31:39;;;;;;;2.60;0.95;;;16.10;67.70;;;;;;5084126;28;20038;-71
2022/11/03 11:34:08;;;;;;;1.77;1.15;;;16.20;67.30;;;;;;5088160;28;20772;-72
2022/11/03 11:36:35;;;;;;;0.95;0.85;;;16.20;67.20;;;;;;5088419;28;20107;-72
2022/11/03 11:39:02;;;;;;;1.42;0.90;;;16.20;67.20;;;;;;5088588;28;20028;-71
2022/11/03 11:42:05;;;;;;;2.47;0.60;;;16.20;67.20;;;;;;5088562;28;20062;-72
2022/11/03 11:44:42;;;;;;;0.93;0.52;;;16.20;67.10;;;;;;5087189;28;20035;-72
2022/11/03 11:47:31;;;;;;;1.08;0.93;;;16.30;67.20;;;;;;5089422;28;20027;-72
2022/11/03 11:50:13;;;;;;;1.38;0.90;;;16.20;66.90;;;;;;5091759;28;20023;-72
2022/11/03 11:52:50;;;;;;;4.78;0.93;;;16.20;66.60;;;;;;5095865;28;20419;-67
2022/11/03 11:55:18;;;;;;;5.85;1.25;;;16.30;66.80;;;;;;5081754;28;20446;-68
2022/11/03 11:57:45;;;;;;;0.95;0.60;;;16.50;66.60;;;;;;5084400;28;20024;-67
2022/11/03 12:00:36;;;;;;;4.95;0.70;;;16.60;66.20;;;;;;5092734;28;20032;-68
2022/11/03 12:03:04;;;;;;;1.20;0.88;;;17.10;65.50;;;;;;5088151;28;20111;-71
2022/11/03 12:05:33;;;;;;;2.25;0.82;;;17.50;64.30;;;;;;5082895;28;20067;-71
2022/11/03 12:07:59;;;;;;;1.17;0.60;;;17.60;63.50;;;;;;5095568;28;20475;-72
2022/11/03 12:10:28;;;;;;;2.03;0.75;;;17.70;63.70;;;;;;5091791;28;20078;-72
2022/11/03 12:12:55;;;;;;;1.05;0.80;;;17.90;62.30;;;;;;5090645;28;20399;-72
2022/11/03 12:15:58;;;;;;;2.55;0.60;;;17.90;62.30;;;;;;5090818;28;20119;-72
2022/11/03 12:18:30;;;;;;;;;;;17.70;62.20;;;;;;5094370;28;20039;-72
2022/11/03 12:20:56;;;;;;;2.25;1.23;;;17.50;62.50;;;;;;5087591;28;19912;-73
2022/11/03 12:23:38;;;;;;;3.47;1.35;;;17.50;62.90;;;;;;5091220;28;20051;-68
2022/11/03 12:26:04;;;;;;;1.42;0.85;;;17.80;62.60;;;;;;5094605;28;20024;-68
2022/11/03 12:28:34;;;;;;;0.88;0.68;;;17.90;62.20;;;;;;5098201;28;20035;-68
2022/11/03 12:31:01;;;;;;;2.80;0.88;;;18.00;62.10;;;;;;5087774;28;20471;-67
2022/11/03 12:33:27;;;;;;;7.43;1.15;;;18.00;62.10;;;;;;5096455;28;20069;-67
2022/11/03 12:35:54;;;;;;;2.38;0.90;;;17.80;62.10;;;;;;5091543;28;20043;-68
2022/11/03 12:38:20;;;;;;;0.98;0.60;;;17.70;62.00;;;;;;5093744;28;20395;-68
2022/11/03 12:40:45;;;;;;;0.73;0.50;;;17.60;62.50;;;;;;5091971;28;20032;-68
2022/11/03 12:43:11;;;;;;;1.83;0.60;;;17.60;62.80;;;;;;5101051;28;20114;-68
2022/11/03 12:45:37;;;;;;;2.10;0.63;;;17.60;62.70;;;;;;5105500;28;20024;-67
2022/11/03 12:48:03;;;;;;;4.35;0.85;;;17.70;62.80;;;;;;5091434;28;20045;-68
2022/11/03 12:50:29;;;;;;;7.43;1.00;;;17.70;62.20;;;;;;5095424;28;20499;-68
2022/11/03 12:52:55;;;;;;;3.47;1.00;;;17.70;62.50;;;;;;5092187;28;20031;-68
2022/11/03 12:55:20;;;;;;;1.75;0.55;;;17.80;62.60;;;;;;5102264;28;20028;-68
2022/11/03 12:57:46;;;;;;;2.83;0.60;;;17.70;62.40;;;;;;5092288;28;20024;-68
2022/11/03 13:00:13;;;;;;;0.95;0.77;;;17.60;62.20;;;;;;5097285;28;20103;-68
2022/11/03 13:02:38;;;;;;;2.88;1.10;;;17.50;62.10;;;;;;5084793;28;20374;-68
2022/11/03 13:05:05;;;;;;;1.17;0.90;;;17.50;62.30;;;;;;5098895;28;20108;-67
2022/11/03 13:07:31;;;;;;;1.27;0.65;;;17.50;62.50;;;;;;5094822;28;20044;-72
2022/11/03 13:09:57;;;;;;;1.95;1.23;;;17.50;62.50;;;;;;5092075;28;20043;-72
2022/11/03 13:12:32;;;;;;;1.10;0.60;;;17.50;62.70;;;;;;5084294;28;20039;-72
2022/11/03 13:14:59;;;;;;;0.70;0.70;;;17.60;62.90;;;;;;5090635;28;20027;-72
2022/11/03 13:17:26;;;;;;;1.45;0.95;;;17.60;62.80;;;;;;5091691;28;20054;-68
2022/11/03 13:19:51;;;;;;;1.10;0.77;;;17.60;62.90;;;;;;5089999;28;20492;-67
2022/11/03 13:22:18;;;;;;;1.58;0.82;;;17.60;62.70;;;;;;5090920;28;20342;-68